createdAt,value
2022-11-19T00:01:16.489Z,94538.00
2022-11-19T00:03:48.770Z,94529.44
2022-11-19T00:06:21.761Z,94534.28
2022-11-19T00:08:51.092Z,94543.72
2022-11-19T00:11:40.877Z,94541.56
2022-11-19T00:14:08.359Z,94538.63
2022-11-19T00:16:36.065Z,94529.78
2022-11-19T00:19:03.822Z,94541.63
2022-11-19T00:21:31.450Z,94535.16
2022-11-19T00:24:00.742Z,94530.34
2022-11-19T00:26:28.497Z,94527.94
2022-11-19T00:28:56.396Z,94527.72
2022-11-19T00:31:24.062Z,94523.69
2022-11-19T00:33:54.143Z,94522.91
2022-11-19T00:36:22.370Z,94522.91
2022-11-19T00:38:50.010Z,94527.00
2022-11-19T00:41:19.253Z,94524.31
2022-11-19T00:43:50.371Z,94528.31
2022-11-19T00:46:19.558Z,94526.94
2022-11-19T00:48:48.595Z,94525.31
2022-11-19T00:51:17.667Z,94529.88
2022-11-19T00:53:45.645Z,94530.88
2022-11-19T00:56:14.784Z,94522.81
2022-11-19T00:58:44.351Z,94528.44
2022-11-19T01:01:12.645Z,94527.91
2022-11-19T01:03:41.142Z,94531.22
2022-11-19T01:06:09.732Z,94526.91
2022-11-19T01:08:37.736Z,94533.09
2022-11-19T01:11:06.519Z,94525.81
2022-11-19T01:13:37.537Z,94525.03
2022-11-19T01:16:10.224Z,94526.06
2022-11-19T01:18:38.938Z,94531.97
2022-11-19T01:21:10.552Z,94530.34
2022-11-19T01:23:38.912Z,94525.47
2022-11-19T01:26:07.565Z,94523.56
2022-11-19T01:28:35.843Z,94521.69
2022-11-19T01:31:09.937Z,94531.38
2022-11-19T01:33:38.664Z,94532.41
2022-11-19T01:36:09.235Z,94539.13
2022-11-19T01:38:37.132Z,94539.19
2022-11-19T01:41:05.832Z,94543.41
2022-11-19T01:43:45.607Z,94531.31
2022-11-19T01:46:16.994Z,94543.91
2022-11-19T01:48:50.140Z,94544.72
2022-11-19T01:51:23.595Z,94542.03
2022-11-19T01:53:52.870Z,94551.44
2022-11-19T01:56:22.505Z,94545.25
2022-11-19T01:58:55.796Z,94546.63
2022-11-19T02:01:25.017Z,94548.75
2022-11-19T02:03:53.735Z,94549.84
2022-11-19T02:06:21.742Z,94547.09
2022-11-19T02:08:51.552Z,94548.75
2022-11-19T02:11:40.918Z,94548.69
2022-11-19T02:14:36.661Z,94549.78
2022-11-19T02:17:12.992Z,94539.25
2022-11-19T02:20:12.228Z,94536.56
2022-11-19T02:23:06.286Z,94542.78
2022-11-19T02:25:50.292Z,94551.44
2022-11-19T02:28:28.693Z,94554.88
2022-11-19T02:31:04.823Z,94553.81
2022-11-19T02:33:41.892Z,94553.25
2022-11-19T02:36:15.911Z,94551.63
2022-11-19T02:38:49.657Z,94548.41
2022-11-19T02:41:37.856Z,94554.59
2022-11-19T02:44:33.851Z,94552.44
2022-11-19T02:47:07.751Z,94547.31
2022-11-19T02:49:39.190Z,94556.47
2022-11-19T02:52:07.137Z,94553.22
2022-11-19T02:54:37.212Z,94555.66
2022-11-19T02:57:05.069Z,94552.66
2022-11-19T02:59:56.689Z,94554.25
2022-11-19T03:02:47.137Z,94563.66
2022-11-19T03:05:19.421Z,94557.47
2022-11-19T03:07:47.218Z,94563.38
2022-11-19T03:10:16.201Z,94560.16
2022-11-19T03:12:51.156Z,94562.34
2022-11-19T03:15:55.197Z,94572.03
2022-11-19T03:18:33.052Z,94570.41
2022-11-19T03:21:08.417Z,94572.53
2022-11-19T03:23:41.125Z,94575.00
2022-11-19T03:26:19.507Z,94580.91
2022-11-19T03:28:49.041Z,94577.19
2022-11-19T03:31:19.905Z,94570.94
2022-11-19T03:33:53.441Z,94582.56
2022-11-19T03:36:25.381Z,94581.97
2022-11-19T03:38:56.761Z,94582.25
2022-11-19T03:41:27.122Z,94576.81
2022-11-19T03:43:59.791Z,94578.44
2022-11-19T03:46:30.280Z,94580.31
2022-11-19T03:49:01.386Z,94581.16
2022-11-19T03:51:38.053Z,94577.38
2022-11-19T03:54:05.912Z,94578.47
2022-11-19T03:56:37.829Z,94582.25
2022-11-19T03:59:08.464Z,94581.19
2022-11-19T04:01:36.808Z,94580.38
2022-11-19T04:04:24.360Z,94583.88
2022-11-19T04:06:52.057Z,94583.88
2022-11-19T04:09:19.904Z,94591.16
2022-11-19T04:14:14.308Z,94584.47
2022-11-19T04:16:41.985Z,94589.03
2022-11-19T04:19:10.996Z,94590.41
2022-11-19T04:21:38.774Z,94596.31
2022-11-19T04:24:07.274Z,94595.25
2022-11-19T04:26:34.925Z,94586.91
2022-11-19T04:29:02.738Z,94590.41
2022-11-19T04:31:30.380Z,94584.22
2022-11-19T04:33:57.988Z,94597.97
2022-11-19T04:36:26.988Z,94592.84
2022-11-19T04:38:54.730Z,94594.53
2022-11-19T04:41:22.423Z,94596.69
2022-11-19T04:43:50.054Z,94598.84
2022-11-19T04:46:17.812Z,94594.00
2022-11-19T04:48:45.412Z,94600.19
2022-11-19T04:51:13.082Z,94602.09
2022-11-19T04:53:42.048Z,94598.06
2022-11-19T04:56:09.682Z,94607.00
2022-11-19T04:58:37.368Z,94605.94
2022-11-19T05:01:05.537Z,94594.38
2022-11-19T05:03:33.280Z,94605.69
2022-11-19T05:06:01.399Z,94610.81
2022-11-19T05:08:29.112Z,94605.94
2022-11-19T05:10:58.146Z,94616.16
2022-11-19T05:13:25.759Z,94611.59
2022-11-19T05:15:53.410Z,94612.38
2022-11-19T05:18:21.095Z,94621.25
2022-11-19T05:20:48.938Z,94619.88
2022-11-19T05:23:16.628Z,94623.09
2022-11-19T05:25:44.317Z,94629.28
2022-11-19T05:28:13.372Z,94633.59
2022-11-19T05:30:40.991Z,94630.63
2022-11-19T05:33:20.726Z,94632.53
2022-11-19T05:35:48.366Z,94633.66
2022-11-19T05:38:16.028Z,94639.31
2022-11-19T05:40:45.187Z,94635.81
2022-11-19T05:43:14.309Z,94635.81
2022-11-19T05:45:42.040Z,94633.13
2022-11-19T05:48:09.710Z,94631.25
2022-11-19T05:50:37.363Z,94637.44
2022-11-19T05:53:05.167Z,94633.66
2022-11-19T05:55:34.999Z,94633.94
2022-11-19T05:58:02.641Z,94639.59
2022-11-19T06:00:32.166Z,94638.25
2022-11-19T06:02:59.829Z,94636.38
2022-11-19T06:05:27.476Z,94632.06
2022-11-19T06:07:55.121Z,94634.50
2022-11-19T06:10:22.759Z,94631.03
2022-11-19T06:12:50.430Z,94633.19
2022-11-19T06:15:18.232Z,94640.94
2022-11-19T06:17:47.880Z,94641.25
2022-11-19T06:20:15.665Z,94641.53
2022-11-19T06:22:43.325Z,94641.25
2022-11-19T06:25:11.009Z,94647.66
2022-11-19T06:27:38.655Z,94642.00
2022-11-19T06:30:07.625Z,94645.25
2022-11-19T06:32:35.471Z,94646.84
2022-11-19T06:35:05.129Z,94633.94
2022-11-19T06:37:32.748Z,94637.69
2022-11-19T06:40:00.431Z,94651.44
2022-11-19T06:42:49.801Z,94651.97
2022-11-19T06:45:18.610Z,94653.56
2022-11-19T06:47:49.911Z,94655.72
2022-11-19T06:50:19.244Z,94651.69
2022-11-19T06:52:46.879Z,94658.66
2022-11-19T06:55:14.545Z,94663.47
2022-11-19T06:57:42.160Z,94659.16
2022-11-19T07:00:11.314Z,94653.78
2022-11-19T07:02:39.001Z,94660.22
2022-11-19T07:05:07.573Z,94663.44
2022-11-19T07:07:36.583Z,94672.03
2022-11-19T07:10:04.432Z,94664.78
2022-11-19T07:12:32.067Z,94673.38
2022-11-19T07:15:03.955Z,94678.75
2022-11-19T07:17:32.351Z,94673.09
2022-11-19T07:20:00.146Z,94670.13
2022-11-19T07:22:28.191Z,94678.00
2022-11-19T07:24:57.234Z,94679.88
2022-11-19T07:27:25.047Z,94686.34
2022-11-19T07:29:52.724Z,94685.47
2022-11-19T07:32:20.393Z,94689.78
2022-11-19T07:34:48.034Z,94685.41
2022-11-19T07:37:19.091Z,94692.31
2022-11-19T07:39:46.925Z,94690.13
2022-11-19T07:42:33.489Z,94692.47
2022-11-19T07:45:01.138Z,94687.84
2022-11-19T07:47:28.773Z,94688.94
2022-11-19T07:49:56.459Z,94691.34
2022-11-19T07:52:24.173Z,94691.91
2022-11-19T07:54:51.780Z,94684.91
2022-11-19T07:57:24.615Z,94690.81
2022-11-19T07:59:54.839Z,94679.22
2022-11-19T08:02:22.469Z,94686.25
2022-11-19T08:04:50.101Z,94692.19
2022-11-19T08:07:18.326Z,94695.16
2022-11-19T08:09:48.279Z,94695.41
2022-11-19T08:12:15.930Z,94693.50
2022-11-19T08:14:44.936Z,94698.56
2022-11-19T08:17:30.379Z,94699.00
2022-11-19T08:19:57.989Z,94700.41
2022-11-19T08:22:26.953Z,94694.53
2022-11-19T08:24:54.657Z,94694.09
2022-11-19T08:27:22.311Z,94690.16
2022-11-19T08:29:51.287Z,94684.38
2022-11-19T08:32:18.979Z,94685.19
2022-11-19T08:34:46.614Z,94676.78
2022-11-19T08:37:14.527Z,94672.56
2022-11-19T08:39:42.167Z,94670.34
2022-11-19T08:42:30.608Z,94675.03
2022-11-19T08:44:59.586Z,94670.13
2022-11-19T08:47:27.243Z,94675.47
2022-11-19T08:49:54.917Z,94673.22
2022-11-19T08:52:22.575Z,94675.22
2022-11-19T08:54:50.201Z,94676.41
2022-11-19T08:57:17.862Z,94666.97
2022-11-19T08:59:45.483Z,94674.59
2022-11-19T09:02:14.439Z,94672.22
2022-11-19T09:04:42.394Z,94672.81
2022-11-19T09:07:10.062Z,94679.78
2022-11-19T09:09:37.811Z,94676.59
2022-11-19T09:12:06.050Z,94680.75
2022-11-19T09:14:33.719Z,94678.06
2022-11-19T09:17:01.407Z,94673.97
2022-11-19T09:19:30.371Z,94683.09
2022-11-19T09:21:58.027Z,94680.78
2022-11-19T09:24:25.706Z,94679.88
2022-11-19T09:26:59.539Z,94687.09
2022-11-19T09:29:29.615Z,94691.97
2022-11-19T09:31:57.259Z,94696.47
2022-11-19T09:34:24.980Z,94694.34
2022-11-19T09:36:54.044Z,94700.25
2022-11-19T09:39:21.691Z,94694.09
2022-11-19T09:41:55.725Z,94702.28
2022-11-19T09:44:36.844Z,94705.81
2022-11-19T09:47:12.750Z,94707.41
2022-11-19T09:49:48.211Z,94716.09
2022-11-19T09:52:20.883Z,94709.38
2022-11-19T09:54:51.138Z,94717.28
2022-11-19T09:57:27.795Z,94714.13
2022-11-19T09:59:58.335Z,94716.19
2022-11-19T10:02:26.110Z,94712.25
2022-11-19T10:04:54.633Z,94711.72
2022-11-19T10:07:34.172Z,94721.03
2022-11-19T10:10:16.515Z,94708.72
2022-11-19T10:13:20.286Z,94721.38
2022-11-19T10:16:03.134Z,94715.91
2022-11-19T10:18:41.505Z,94708.44
2022-11-19T10:21:15.414Z,94718.09
2022-11-19T10:23:51.205Z,94711.66
2022-11-19T10:26:23.102Z,94713.06
2022-11-19T10:28:56.177Z,94721.09
2022-11-19T10:31:30.243Z,94706.63
2022-11-19T10:34:04.576Z,94706.91
2022-11-19T10:36:37.322Z,94715.47
2022-11-19T10:39:11.880Z,94704.56
2022-11-19T10:41:46.320Z,94716.19
2022-11-19T10:44:36.611Z,94705.91
2022-11-19T10:47:05.571Z,94712.09
2022-11-19T10:49:38.977Z,94709.03
2022-11-19T10:52:07.581Z,94708.56
2022-11-19T10:54:39.094Z,94707.72
2022-11-19T10:57:14.320Z,94700.03
2022-11-19T10:59:42.623Z,94692.16
2022-11-19T11:02:26.514Z,94692.47
2022-11-19T11:05:18.188Z,94689.09
2022-11-19T11:07:54.391Z,94687.16
2022-11-19T11:10:46.619Z,94686.25
2022-11-19T11:13:37.816Z,94682.03
2022-11-19T11:16:08.334Z,94682.16
2022-11-19T11:18:40.431Z,94674.13
2022-11-19T11:21:12.006Z,94669.84
2022-11-19T11:23:50.818Z,94666.56
2022-11-19T11:26:26.023Z,94668.13
2022-11-19T11:29:00.086Z,94670.44
2022-11-19T11:31:46.402Z,94673.88
2022-11-19T11:34:28.817Z,94668.53
2022-11-19T11:36:57.366Z,94658.13
2022-11-19T11:39:28.093Z,94665.84
2022-11-19T11:42:07.173Z,94659.63
2022-11-19T11:44:38.265Z,94656.75
2022-11-19T11:47:14.040Z,94658.69
2022-11-19T11:49:43.833Z,94651.59
2022-11-19T11:52:19.132Z,94649.59
2022-11-19T11:54:58.579Z,94647.69
2022-11-19T11:57:29.553Z,94641.34
2022-11-19T11:59:57.646Z,94639.38
2022-11-19T12:02:30.275Z,94633.94
2022-11-19T12:05:02.170Z,94640.50
2022-11-19T12:07:44.697Z,94636.19
2022-11-19T12:10:23.632Z,94645.78
2022-11-19T12:12:59.645Z,94644.00
2022-11-19T12:15:39.378Z,94643.44
2022-11-19T12:18:15.224Z,94647.78
2022-11-19T12:20:48.826Z,94644.34
2022-11-19T12:23:30.242Z,94642.91
2022-11-19T12:26:12.870Z,94652.56
2022-11-19T12:28:59.142Z,94640.22
2022-11-19T12:31:41.701Z,94649.38
2022-11-19T12:34:28.209Z,94647.41
2022-11-19T12:37:03.370Z,94656.22
2022-11-19T12:39:42.232Z,94661.06
2022-11-19T12:42:32.369Z,94665.16
2022-11-19T12:45:07.266Z,94651.63
2022-11-19T12:48:03.812Z,94655.69
2022-11-19T12:50:38.973Z,94663.97
2022-11-19T12:53:22.419Z,94661.47
2022-11-19T12:56:04.336Z,94657.84
2022-11-19T12:58:44.525Z,94664.72
2022-11-19T13:01:16.675Z,94655.91
2022-11-19T13:03:53.525Z,94660.72
2022-11-19T13:06:26.188Z,94670.72
2022-11-19T13:08:59.316Z,94658.56
2022-11-19T13:11:36.317Z,94657.38
2022-11-19T13:14:10.769Z,94657.94
2022-11-19T13:16:41.277Z,94648.66
2022-11-19T13:19:20.615Z,94648.06
2022-11-19T13:21:55.008Z,94651.28
2022-11-19T13:24:32.020Z,94651.56
2022-11-19T13:27:04.788Z,94645.69
2022-11-19T13:29:41.243Z,94639.69
2022-11-19T13:32:18.898Z,94634.31
2022-11-19T13:35:02.213Z,94639.44
2022-11-19T13:37:44.571Z,94641.34
2022-11-19T13:40:21.038Z,94641.91
2022-11-19T13:46:03.829Z,94651.84
2022-11-19T13:48:36.587Z,94645.19
2022-11-19T13:51:09.716Z,94644.88
2022-11-19T13:53:42.221Z,94643.16
2022-11-19T13:56:15.197Z,94646.53
2022-11-19T13:58:47.861Z,94636.16
2022-11-19T14:01:55.727Z,94634.09
2022-11-19T14:04:43.381Z,94633.69
2022-11-19T14:07:30.861Z,94622.00
2022-11-19T14:10:11.404Z,94633.09
2022-11-19T14:12:53.143Z,94628.31
2022-11-19T14:15:52.042Z,94627.22
2022-11-19T14:18:43.383Z,94627.50
2022-11-19T14:22:13.990Z,94634.25
2022-11-19T14:25:16.895Z,94633.59
2022-11-19T14:27:45.528Z,94634.03
2022-11-19T14:30:18.974Z,94630.19
2022-11-19T14:32:49.689Z,94638.09
2022-11-19T14:35:39.555Z,94638.09
2022-11-19T14:38:33.164Z,94639.19
2022-11-19T14:41:15.252Z,94635.81
2022-11-19T14:44:10.667Z,94639.91
2022-11-19T14:46:47.922Z,94635.47
2022-11-19T14:49:27.490Z,94640.16
2022-11-19T14:51:57.639Z,94641.25
2022-11-19T14:54:38.556Z,94641.13
2022-11-19T14:57:17.873Z,94646.75
2022-11-19T14:59:52.401Z,94650.19
2022-11-19T15:02:26.128Z,94650.56
2022-11-19T15:04:58.523Z,94658.16
2022-11-19T15:07:36.262Z,94651.25
2022-11-19T15:10:12.067Z,94647.13
2022-11-19T15:13:02.417Z,94657.66
2022-11-19T15:15:38.513Z,94649.63
2022-11-19T15:18:35.955Z,94651.94
2022-11-19T15:21:22.607Z,94654.53
2022-11-19T15:24:04.606Z,94663.06
2022-11-19T15:26:45.275Z,94668.31
2022-11-19T15:29:23.468Z,94667.34
2022-11-19T15:32:16.093Z,94664.16
2022-11-19T15:35:13.554Z,94670.72
2022-11-19T15:37:49.154Z,94677.16
2022-11-19T15:40:19.853Z,94670.84
2022-11-19T15:42:52.882Z,94682.56
2022-11-19T15:45:24.498Z,94680.84
2022-11-19T15:47:55.772Z,94682.19
2022-11-19T15:50:25.502Z,94684.06
2022-11-19T15:53:00.352Z,94691.91
2022-11-19T15:55:30.775Z,94697.47
2022-11-19T15:58:03.141Z,94697.19
2022-11-19T16:00:32.882Z,94694.78
2022-11-19T16:03:01.905Z,94698.34
2022-11-19T16:05:32.818Z,94705.41
2022-11-19T16:08:06.427Z,94709.56
2022-11-19T16:10:36.523Z,94714.38
2022-11-19T16:13:38.039Z,94714.97
2022-11-19T16:16:33.543Z,94710.59
2022-11-19T16:19:01.257Z,94720.66
2022-11-19T16:21:33.351Z,94712.09
2022-11-19T16:24:19.952Z,94714.50
2022-11-19T16:26:48.650Z,94721.06
2022-11-19T16:29:19.085Z,94715.31
2022-11-19T16:31:50.503Z,94721.38
2022-11-19T16:34:23.442Z,94725.09
2022-11-19T16:36:52.452Z,94720.56
2022-11-19T16:39:23.214Z,94732.19
2022-11-19T16:42:14.097Z,94729.75
2022-11-19T16:44:44.252Z,94742.50
2022-11-19T16:47:22.482Z,94742.50
2022-11-19T16:50:00.744Z,94743.09
2022-11-19T16:52:43.272Z,94737.81
2022-11-19T16:55:40.531Z,94748.31
2022-11-19T16:58:16.557Z,94745.66
2022-11-19T17:00:49.640Z,94748.09
2022-11-19T17:03:30.078Z,94750.25
2022-11-19T17:05:59.755Z,94747.84
2022-11-19T17:08:30.983Z,94744.91
2022-11-19T17:11:29.851Z,94749.59
2022-11-19T17:13:57.502Z,94750.69
2022-11-19T17:16:25.646Z,94751.22
2022-11-19T17:18:54.682Z,94750.41
2022-11-19T17:21:26.244Z,94749.31
2022-11-19T17:23:54.518Z,94749.38
2022-11-19T17:26:25.660Z,94755.59
2022-11-19T17:28:58.634Z,94761.28
2022-11-19T17:31:28.102Z,94757.84
2022-11-19T17:34:00.632Z,94756.25
2022-11-19T17:36:28.302Z,94761.63
2022-11-19T17:38:56.024Z,94766.22
2022-11-19T17:41:42.620Z,94757.66
2022-11-19T17:44:30.324Z,94767.88
2022-11-19T17:46:58.075Z,94765.97
2022-11-19T17:49:27.124Z,94769.25
2022-11-19T17:51:55.331Z,94777.69
2022-11-19T17:54:23.974Z,94794.16
2022-11-19T17:56:51.780Z,94786.91
2022-11-19T17:59:19.455Z,94789.97
2022-11-19T18:01:47.523Z,94794.03
2022-11-19T18:04:15.340Z,94798.72
2022-11-19T18:06:44.434Z,94809.34
2022-11-19T18:09:12.249Z,94811.19
2022-11-19T18:11:40.454Z,94812.31
2022-11-19T18:14:10.039Z,94815.25
2022-11-19T18:16:39.977Z,94815.75
2022-11-19T18:19:12.624Z,94820.44
2022-11-19T18:21:41.632Z,94821.22
2022-11-19T18:24:13.473Z,94823.09
2022-11-19T18:26:41.479Z,94821.00
2022-11-19T18:29:09.403Z,94826.88
2022-11-19T18:31:43.614Z,94822.84
2022-11-19T18:34:15.246Z,94826.06
2022-11-19T18:36:45.449Z,94832.56
2022-11-19T18:39:14.507Z,94834.75
2022-11-19T18:41:42.441Z,94829.34
2022-11-19T18:44:31.721Z,94832.03
2022-11-19T18:46:59.867Z,94832.34
2022-11-19T18:49:27.778Z,94839.06
2022-11-19T18:51:55.489Z,94829.41
2022-11-19T18:54:24.482Z,94822.66
2022-11-19T18:56:52.396Z,94823.50
2022-11-19T18:59:20.268Z,94826.19
2022-11-19T19:01:48.332Z,94828.63
2022-11-19T19:04:16.761Z,94828.06
2022-11-19T19:06:44.480Z,94828.88
2022-11-19T19:09:12.112Z,94833.72
2022-11-19T19:11:58.693Z,94825.38
2022-11-19T19:14:26.387Z,94836.41
2022-11-19T19:16:54.056Z,94831.84
2022-11-19T19:19:21.911Z,94831.88
2022-11-19T19:21:49.874Z,94834.84
2022-11-19T19:24:17.808Z,94830.81
2022-11-19T19:26:46.886Z,94830.03
2022-11-19T19:29:14.682Z,94834.88
2022-11-19T19:31:42.332Z,94833.56
2022-11-19T19:34:09.992Z,94837.59
2022-11-19T19:36:37.781Z,94836.53
2022-11-19T19:39:05.627Z,94835.19
2022-11-19T19:41:33.415Z,94838.13
2022-11-19T19:44:04.412Z,94845.41
2022-11-19T19:46:33.425Z,94839.50
2022-11-19T19:49:01.194Z,94841.38
2022-11-19T19:51:30.767Z,94844.34
2022-11-19T19:53:58.472Z,94852.41
2022-11-19T19:56:28.352Z,94847.56
2022-11-19T19:58:57.887Z,94856.19
2022-11-19T20:01:28.508Z,94855.09
2022-11-19T20:04:01.636Z,94856.44
2022-11-19T20:06:30.124Z,94857.25
2022-11-19T20:08:57.840Z,94857.00
2022-11-19T20:11:27.043Z,94860.75
2022-11-19T20:13:56.166Z,94846.47
2022-11-19T20:16:25.463Z,94852.09
2022-11-19T20:18:55.693Z,94847.53
2022-11-19T20:21:25.440Z,94852.66
2022-11-19T20:23:53.624Z,94846.97
2022-11-19T20:26:24.093Z,94843.75
2022-11-19T20:28:55.624Z,94843.75
2022-11-19T20:31:23.396Z,94835.94
2022-11-19T20:33:55.809Z,94836.22
2022-11-19T20:36:26.061Z,94844.56
2022-11-19T20:38:54.266Z,94842.94
2022-11-19T20:41:41.784Z,94844.56
2022-11-19T20:44:21.809Z,94843.47
2022-11-19T20:46:51.918Z,94844.84
2022-11-19T20:49:23.651Z,94853.19
2022-11-19T20:51:52.688Z,94849.16
2022-11-19T20:54:22.251Z,94849.41
2022-11-19T20:56:50.906Z,94848.09
2022-11-19T20:59:19.710Z,94846.72
2022-11-19T21:01:49.674Z,94841.63
2022-11-19T21:04:17.732Z,94844.03
2022-11-19T21:06:47.264Z,94840.25
2022-11-19T21:09:15.817Z,94848.06
2022-11-19T21:11:44.180Z,94845.91
2022-11-19T21:14:12.024Z,94844.81
2022-11-19T21:16:39.766Z,94851.56
2022-11-19T21:19:07.487Z,94844.81
2022-11-19T21:21:35.409Z,94849.94
2022-11-19T21:24:04.871Z,94850.22
2022-11-19T21:26:32.634Z,94844.03
2022-11-19T21:29:01.401Z,94845.13
2022-11-19T21:31:39.396Z,94842.97
2022-11-19T21:34:08.606Z,94844.88
2022-11-19T21:36:36.730Z,94848.69
2022-11-19T21:39:07.049Z,94854.06
2022-11-19T21:41:35.521Z,94851.91
2022-11-19T21:44:03.878Z,94850.31
2022-11-19T21:46:32.016Z,94852.72
2022-11-19T21:49:00.002Z,94847.06
2022-11-19T21:51:27.662Z,94853.81
2022-11-19T21:53:56.022Z,94851.91
2022-11-19T21:56:26.071Z,94844.94
2022-11-19T21:58:53.763Z,94845.47
2022-11-19T22:01:22.343Z,94845.72
2022-11-19T22:03:50.011Z,94853.81
2022-11-19T22:06:17.731Z,94852.97
2022-11-19T22:08:45.666Z,94851.09
2022-11-19T22:11:36.343Z,94851.34
2022-11-19T22:14:07.268Z,94853.50
2022-11-19T22:16:37.045Z,94842.50
2022-11-19T22:19:05.587Z,94851.63
2022-11-19T22:21:33.863Z,94852.97
2022-11-19T22:24:01.618Z,94848.41
2022-11-19T22:26:29.273Z,94853.78
2022-11-19T22:28:57.368Z,94861.06
2022-11-19T22:31:27.114Z,94861.06
2022-11-19T22:33:55.529Z,94865.38
2022-11-19T22:36:24.237Z,94859.16
2022-11-19T22:38:52.765Z,94852.44
2022-11-19T22:41:22.380Z,94860.00
2022-11-19T22:43:50.675Z,94860.00
2022-11-19T22:46:19.437Z,94853.56
2022-11-19T22:48:49.220Z,94863.50
2022-11-19T22:51:18.765Z,94869.69
2022-11-19T22:53:46.689Z,94868.59
2022-11-19T22:56:16.122Z,94865.63
2022-11-19T23:03:57.155Z,94871.81
2022-11-19T23:06:25.517Z,94868.88
2022-11-19T23:08:53.741Z,94879.34
2022-11-19T23:11:37.655Z,94877.47
2022-11-19T23:14:05.545Z,94868.06
2022-11-19T23:16:33.293Z,94871.03
2022-11-19T23:19:02.452Z,94863.22
2022-11-19T23:21:30.913Z,94871.28
2022-11-19T23:23:59.756Z,94868.06
2022-11-19T23:26:28.916Z,94869.66
2022-11-19T23:28:56.903Z,94864.56
2022-11-19T23:31:26.332Z,94865.91
2022-11-19T23:33:59.067Z,94871.28
2022-11-19T23:36:30.435Z,94863.75
2022-11-19T23:38:58.812Z,94864.81
2022-11-19T23:41:26.851Z,94860.50
2022-11-19T23:43:55.655Z,94871.28
2022-11-19T23:46:25.346Z,94861.59
2022-11-19T23:48:55.022Z,94868.84
2022-11-19T23:51:25.118Z,94862.94
2022-11-19T23:53:54.553Z,94862.66
2022-11-19T23:56:23.846Z,94864.00
2022-11-19T23:58:52.305Z,94867.25
